Time;durP1;ratioP1;P1;durP2;ratioP2;P2;SDS_P1;SDS_P2;PMS_P1;PMS_P2;Temp;Humidity;BMP_temperature;BMP_pressure;BME280_temperature;BME280_humidity;BME280_pressure;Samples;Min_cycle;Max_cycle;Signal;HPM_P1;HPM_P2
2023/08/17 00:01:03;;;;;;;1.13;0.40;;;19.40;77.40;;;;;;4915135;29;20078;-82
2023/08/17 00:03:35;;;;;;;1.33;0.50;;;19.40;77.30;;;;;;4897505;29;20154;-83
2023/08/17 00:06:07;;;;;;;0.63;0.38;;;19.40;77.30;;;;;;4915655;29;20051;-83
2023/08/17 00:08:37;;;;;;;1.92;0.43;;;19.40;77.30;;;;;;4861620;29;20071;-83
2023/08/17 00:11:07;;;;;;;2.40;0.50;;;19.40;77.20;;;;;;4914899;29;20047;-83
2023/08/17 00:13:35;;;;;;;1.48;0.50;;;19.40;77.30;;;;;;4909484;29;20111;-83
2023/08/17 00:16:06;;;;;;;2.00;0.47;;;19.40;77.30;;;;;;4890163;29;20044;-83
2023/08/17 00:18:33;;;;;;;1.20;0.40;;;19.40;77.30;;;;;;4916191;29;20122;-83
2023/08/17 00:21:01;;;;;;;1.00;0.40;;;19.40;77.30;;;;;;4920414;29;20067;-83
2023/08/17 00:23:31;;;;;;;0.65;0.32;;;19.30;77.20;;;;;;4915669;29;20047;-83
2023/08/17 00:25:59;;;;;;;1.40;0.35;;;19.30;77.20;;;;;;4896585;29;20132;-83
2023/08/17 00:28:26;;;;;;;2.38;0.57;;;19.30;77.30;;;;;;4912352;29;20052;-82
2023/08/17 00:30:53;;;;;;;2.55;0.50;;;19.30;77.30;;;;;;4894338;29;20492;-83
2023/08/17 00:33:21;;;;;;;1.48;0.40;;;19.30;77.30;;;;;;4914208;29;20051;-82
2023/08/17 00:35:48;;;;;;;1.67;0.50;;;19.30;77.30;;;;;;4895270;29;20048;-83
2023/08/17 00:38:16;;;;;;;1.00;0.40;;;19.30;77.40;;;;;;4911669;29;21174;-83
2023/08/17 00:40:47;;;;;;;3.28;0.60;;;19.30;77.40;;;;;;4907782;29;20070;-85
2023/08/17 00:43:18;;;;;;;0.90;0.40;;;19.20;77.40;;;;;;4914415;29;20051;-83
2023/08/17 00:45:46;;;;;;;0.52;0.40;;;19.20;77.50;;;;;;4897422;29;20489;-83
2023/08/17 00:48:17;;;;;;;1.15;0.30;;;19.20;77.50;;;;;;4911911;29;20052;-82
2023/08/17 00:50:48;;;;;;;1.55;0.40;;;19.20;77.50;;;;;;4913073;29;20138;-82
2023/08/17 00:53:17;;;;;;;1.88;0.47;;;19.20;77.50;;;;;;4927158;29;20040;-82
2023/08/17 00:55:49;;;;;;;0.68;0.30;;;19.20;77.60;;;;;;4900992;29;20047;-83
2023/08/17 00:58:17;;;;;;;1.67;0.50;;;19.20;77.70;;;;;;4915974;29;20043;-83
2023/08/17 01:00:48;;;;;;;1.23;0.32;;;19.10;77.70;;;;;;4901675;29;20118;-83
2023/08/17 01:03:35;;;;;;;2.05;0.40;;;19.10;77.90;;;;;;4917902;29;20051;-82
2023/08/17 01:06:03;;;;;;;1.23;0.40;;;19.00;77.90;;;;;;4851920;29;20056;-82
2023/08/17 01:08:30;;;;;;;1.92;0.30;;;19.00;78.00;;;;;;4853054;29;20117;-89
2023/08/17 01:11:08;;;;;;;1.38;0.30;;;19.00;78.00;;;;;;4872096;29;20498;-89
2023/08/17 01:13:49;;;;;;;1.95;0.50;;;19.00;78.10;;;;;;4845682;29;20610;-88
2023/08/17 01:16:24;;;;;;;;;;;19.10;78.10;;;;;;4871626;29;20851;-88
2023/08/17 01:18:52;;;;;;;1.85;0.40;;;19.00;78.10;;;;;;4860637;29;20027;-89
2023/08/17 01:21:23;;;;;;;2.20;0.65;;;19.00;78.10;;;;;;4865968;29;20061;-88
2023/08/17 01:24:01;;;;;;;1.63;0.47;;;19.00;78.10;;;;;;4854216;29;20045;-83
2023/08/17 01:26:28;;;;;;;1.02;0.40;;;19.00;78.10;;;;;;4844120;29;20105;-83
2023/08/17 01:28:58;;;;;;;1.30;0.50;;;18.90;78.20;;;;;;4859726;29;20068;-83
2023/08/17 01:31:33;;;;;;;4.35;0.50;;;18.90;78.30;;;;;;4860192;29;20060;-83
2023/08/17 01:34:10;;;;;;;1.85;0.50;;;18.90;78.40;;;;;;4857250;29;20065;-84
2023/08/17 01:37:06;;;;;;;1.63;0.60;;;18.90;78.50;;;;;;4875157;29;20495;-82
2023/08/17 01:39:39;;;;;;;2.97;0.40;;;18.80;78.60;;;;;;4911265;29;20050;-83
2023/08/17 01:42:07;;;;;;;1.60;0.47;;;18.80;78.70;;;;;;4908519;29;20552;-84
2023/08/17 01:44:34;;;;;;;1.52;0.40;;;18.80;78.70;;;;;;4913377;29;20456;-83
2023/08/17 01:47:04;;;;;;;1.58;0.45;;;18.80;78.70;;;;;;4909955;29;20054;-83
2023/08/17 01:49:34;;;;;;;1.85;0.60;;;18.80;78.80;;;;;;4898505;29;20048;-82
2023/08/17 01:52:02;;;;;;;2.25;0.50;;;18.70;78.80;;;;;;4916409;29;20403;-83
2023/08/17 01:54:32;;;;;;;1.35;0.60;;;18.70;78.90;;;;;;4915864;29;20567;-82
2023/08/17 01:57:20;;;;;;;1.63;0.65;;;18.70;79.00;;;;;;4921255;29;20484;-83
2023/08/17 01:59:48;;;;;;;0.88;0.30;;;18.70;79.00;;;;;;4908498;29;20092;-83
2023/08/17 02:02:16;;;;;;;0.75;0.40;;;18.70;79.20;;;;;;4897271;29;20446;-82
2023/08/17 02:04:51;;;;;;;1.67;0.43;;;18.70;79.20;;;;;;4917437;29;20055;-83
2023/08/17 02:07:18;;;;;;;2.70;0.50;;;18.60;79.30;;;;;;4900396;29;20055;-87
2023/08/17 02:09:48;;;;;;;1.75;0.65;;;18.60;79.40;;;;;;4897639;29;20054;-88
2023/08/17 02:12:16;;;;;;;2.55;0.50;;;18.50;79.50;;;;;;4901093;29;20059;-89
2023/08/17 02:14:48;;;;;;;1.95;0.50;;;18.50;79.60;;;;;;4900562;29;20058;-88
2023/08/17 02:17:16;;;;;;;1.63;0.40;;;18.50;79.70;;;;;;4900056;29;20162;-89
2023/08/17 02:19:47;;;;;;;1.88;0.52;;;18.50;79.80;;;;;;4920074;29;20055;-89
2023/08/17 02:22:15;;;;;;;1.70;0.53;;;18.50;79.80;;;;;;4891489;29;20064;-89
2023/08/17 02:24:43;;;;;;;0.90;0.50;;;18.40;79.80;;;;;;4914978;29;20179;-82
2023/08/17 02:27:11;;;;;;;2.35;0.77;;;18.40;79.90;;;;;;4896211;29;20043;-82
2023/08/17 02:29:39;;;;;;;2.17;0.55;;;18.40;80.00;;;;;;4905823;29;20056;-83
2023/08/17 02:32:06;;;;;;;2.72;0.80;;;18.40;80.10;;;;;;4901756;29;20044;-82
2023/08/17 02:34:34;;;;;;;2.10;0.70;;;18.30;80.20;;;;;;4927835;29;20070;-82
2023/08/17 02:37:01;;;;;;;1.60;0.52;;;18.30;80.20;;;;;;4898313;29;20058;-83
2023/08/17 02:39:31;;;;;;;2.63;0.60;;;18.30;80.30;;;;;;4927173;29;20531;-82
2023/08/17 02:41:58;;;;;;;1.83;0.50;;;18.30;80.30;;;;;;4913108;29;20067;-82
2023/08/17 02:44:28;;;;;;;0.70;0.40;;;18.30;80.30;;;;;;4915715;29;20092;-82
2023/08/17 02:47:35;;;;;;;2.65;0.40;;;18.30;80.40;;;;;;4913891;29;20048;-82
2023/08/17 02:50:02;;;;;;;1.73;0.32;;;18.30;80.30;;;;;;4917193;29;20131;-82
2023/08/17 02:52:32;;;;;;;2.17;0.40;;;18.30;80.40;;;;;;4914464;29;20052;-82
2023/08/17 02:54:59;;;;;;;1.13;0.60;;;18.30;80.40;;;;;;4912788;29;20078;-82
2023/08/17 02:57:26;;;;;;;1.42;0.50;;;18.30;80.50;;;;;;4914273;29;20056;-82
2023/08/17 02:59:54;;;;;;;3.17;0.60;;;18.20;80.50;;;;;;4929068;29;20050;-83
2023/08/17 03:02:21;;;;;;;1.40;0.40;;;18.20;80.60;;;;;;4917027;29;20051;-82
2023/08/17 03:04:52;;;;;;;1.88;0.70;;;18.20;80.70;;;;;;4914856;29;20051;-83
2023/08/17 03:07:19;;;;;;;1.05;0.50;;;18.20;80.70;;;;;;4924235;29;20455;-83
2023/08/17 03:09:47;;;;;;;1.88;0.47;;;18.20;80.70;;;;;;4920286;29;20143;-83
2023/08/17 03:12:18;;;;;;;1.38;0.40;;;18.20;80.70;;;;;;4908988;29;20154;-84
2023/08/17 03:14:46;;;;;;;1.10;0.57;;;18.20;80.70;;;;;;4910652;29;20271;-82
2023/08/17 03:17:13;;;;;;;2.67;0.50;;;18.20;80.80;;;;;;4899505;29;20052;-83
2023/08/17 03:19:41;;;;;;;1.65;0.50;;;18.10;80.90;;;;;;4900455;29;20043;-84
2023/08/17 03:22:08;;;;;;;1.38;0.50;;;18.10;80.90;;;;;;4919294;29;20529;-83
2023/08/17 03:24:36;;;;;;;2.15;0.50;;;18.10;81.00;;;;;;4907582;29;20534;-82
2023/08/17 03:27:04;;;;;;;1.30;0.40;;;18.10;81.10;;;;;;4902079;29;20046;-82
2023/08/17 03:29:35;;;;;;;2.20;0.50;;;18.00;81.20;;;;;;4898560;29;20139;-84
2023/08/17 03:32:02;;;;;;;0.90;0.40;;;18.00;81.30;;;;;;4911077;29;20051;-83
2023/08/17 03:34:30;;;;;;;1.90;0.98;;;17.90;81.40;;;;;;4905814;29;20385;-82
2023/08/17 03:37:19;;;;;;;2.67;0.60;;;17.90;81.60;;;;;;4928996;29;20063;-82
2023/08/17 03:39:46;;;;;;;1.70;0.40;;;17.80;81.70;;;;;;4899775;29;20115;-87
2023/08/17 03:42:14;;;;;;;0.90;0.50;;;17.80;81.90;;;;;;4933153;29;20044;-88
2023/08/17 03:44:41;;;;;;;2.67;0.65;;;17.70;81.90;;;;;;4916031;29;20099;-88
2023/08/17 03:47:08;;;;;;;1.88;0.40;;;17.70;82.00;;;;;;4929545;29;20134;-88
2023/08/17 03:49:35;;;;;;;1.77;0.50;;;17.60;82.10;;;;;;4915423;29;20051;-88
2023/08/17 03:52:02;;;;;;;1.92;0.60;;;17.60;82.20;;;;;;4910448;29;20176;-86
2023/08/17 03:54:32;;;;;;;2.03;0.40;;;17.60;82.30;;;;;;4913589;29;20203;-86
2023/08/17 03:56:59;;;;;;;1.17;0.45;;;17.50;82.30;;;;;;4914198;29;20055;-87
2023/08/17 03:59:31;;;;;;;2.92;0.55;;;17.50;82.40;;;;;;4927447;29;20086;-90
2023/08/17 04:01:58;;;;;;;1.27;0.40;;;17.50;82.50;;;;;;4915292;29;20100;-89
2023/08/17 04:04:26;;;;;;;2.90;0.50;;;17.50;82.50;;;;;;4898580;29;20051;-89
2023/08/17 04:07:02;;;;;;;0.75;0.60;;;17.40;82.60;;;;;;4917186;29;20050;-89
2023/08/17 04:09:30;;;;;;;2.25;0.40;;;17.40;82.80;;;;;;4912234;29;20492;-89
2023/08/17 04:11:57;;;;;;;1.27;0.43;;;17.40;82.90;;;;;;4916640;29;20074;-88
2023/08/17 04:14:25;;;;;;;1.52;0.40;;;17.40;82.90;;;;;;4908920;29;20091;-89
2023/08/17 04:16:56;;;;;;;1.67;0.40;;;17.30;82.90;;;;;;4912639;29;20051;-89
2023/08/17 04:19:28;;;;;;;1.27;0.40;;;17.30;83.00;;;;;;4917982;29;20052;-88
2023/08/17 04:21:55;;;;;;;2.13;0.50;;;17.30;83.20;;;;;;4909375;29;20041;-89
2023/08/17 04:24:22;;;;;;;4.35;0.70;;;17.20;83.20;;;;;;4911381;29;20052;-89
2023/08/17 04:27:10;;;;;;;1.27;0.43;;;17.20;83.30;;;;;;4916347;29;20039;-89
2023/08/17 04:29:55;;;;;;;2.92;0.60;;;17.20;83.30;;;;;;4915925;29;20055;-89
2023/08/17 04:32:23;;;;;;;3.25;0.52;;;17.20;83.40;;;;;;4904699;29;20130;-90
2023/08/17 04:34:50;;;;;;;2.42;0.60;;;17.20;83.50;;;;;;4902087;29;20052;-89
2023/08/17 04:37:20;;;;;;;2.10;0.60;;;17.20;83.70;;;;;;4918291;29;20043;-89
2023/08/17 04:39:51;;;;;;;1.38;0.40;;;17.20;83.60;;;;;;4905155;29;20122;-88
2023/08/17 04:42:20;;;;;;;1.83;0.40;;;17.10;83.60;;;;;;4897836;29;20044;-88
2023/08/17 04:44:47;;;;;;;1.42;0.40;;;17.10;83.60;;;;;;4913128;29;20044;-88
2023/08/17 04:47:49;;;;;;;1.35;0.40;;;17.20;83.70;;;;;;4914336;29;20051;-88
2023/08/17 04:50:17;;;;;;;3.22;0.40;;;17.20;83.60;;;;;;4898204;29;20129;-88
2023/08/17 04:52:45;;;;;;;0.73;0.38;;;17.20;83.60;;;;;;4897401;29;20048;-89
2023/08/17 04:55:16;;;;;;;2.60;0.43;;;17.20;83.50;;;;;;4914292;29;20103;-89
2023/08/17 04:57:43;;;;;;;1.95;0.50;;;17.30;83.50;;;;;;4914163;29;20492;-82
2023/08/17 05:00:14;;;;;;;1.27;0.50;;;17.30;83.50;;;;;;4910347;29;20051;-83
2023/08/17 05:02:42;;;;;;;0.65;0.40;;;17.30;83.50;;;;;;4896921;29;20122;-82
2023/08/17 05:05:10;;;;;;;0.98;0.30;;;17.30;83.50;;;;;;4898246;29;20492;-82
2023/08/17 05:07:37;;;;;;;2.97;0.50;;;17.30;83.50;;;;;;4917888;29;20071;-83
2023/08/17 05:10:08;;;;;;;0.70;0.40;;;17.30;83.60;;;;;;4913775;29;20047;-82
2023/08/17 05:12:40;;;;;;;0.68;0.30;;;17.30;83.60;;;;;;4915219;29;20055;-83
2023/08/17 05:15:09;;;;;;;1.73;0.40;;;17.30;83.60;;;;;;4900459;29;20056;-82
2023/08/17 05:17:39;;;;;;;2.50;0.63;;;17.30;83.60;;;;;;4913516;29;20055;-82
2023/08/17 05:20:13;;;;;;;2.80;0.40;;;17.40;83.50;;;;;;4893176;29;21015;-82
2023/08/17 05:22:40;;;;;;;1.50;0.68;;;17.50;83.40;;;;;;4918006;29;20063;-83
2023/08/17 05:25:10;;;;;;;1.45;0.38;;;17.50;83.30;;;;;;4908010;29;20172;-82
2023/08/17 05:27:40;;;;;;;2.63;0.60;;;17.60;83.20;;;;;;4924448;29;20048;-83
2023/08/17 05:30:09;;;;;;;2.63;0.50;;;17.70;83.00;;;;;;4898647;29;20518;-83
2023/08/17 05:32:36;;;;;;;1.98;0.45;;;17.70;82.80;;;;;;4917606;29;20083;-83
2023/08/17 05:35:07;;;;;;;0.98;0.20;;;17.80;82.70;;;;;;4905722;29;20127;-82
2023/08/17 05:37:34;;;;;;;1.05;0.30;;;17.90;82.50;;;;;;4898473;29;20047;-83
2023/08/17 05:40:01;;;;;;;1.92;0.40;;;18.00;82.40;;;;;;4914900;29;20052;-83
2023/08/17 05:42:32;;;;;;;2.42;0.43;;;18.10;82.20;;;;;;4902548;29;20052;-83
2023/08/17 05:44:59;;;;;;;0.55;0.30;;;18.20;82.00;;;;;;4904139;29;20849;-83
2023/08/17 05:47:26;;;;;;;1.45;0.40;;;18.30;81.90;;;;;;4902766;29;20066;-83
2023/08/17 05:49:54;;;;;;;0.80;0.47;;;18.40;81.80;;;;;;4907478;29;20130;-83
2023/08/17 05:52:21;;;;;;;1.90;0.40;;;18.40;81.70;;;;;;4908789;29;20051;-83
2023/08/17 05:54:49;;;;;;;1.10;0.38;;;18.40;81.70;;;;;;4921765;29;20353;-83
2023/08/17 05:57:16;;;;;;;2.15;0.50;;;18.40;81.70;;;;;;4914849;29;20083;-83
2023/08/17 05:59:44;;;;;;;0.82;0.40;;;18.40;81.70;;;;;;4901470;29;20040;-83
2023/08/17 06:02:11;;;;;;;1.92;0.38;;;18.40;81.70;;;;;;4906733;29;20429;-82
2023/08/17 06:04:43;;;;;;;2.70;0.47;;;18.40;81.60;;;;;;4919021;29;20162;-81
2023/08/17 06:07:10;;;;;;;1.63;0.40;;;18.40;81.60;;;;;;4902488;29;20630;-82
2023/08/17 06:09:40;;;;;;;2.05;0.30;;;18.40;81.60;;;;;;4916218;29;20063;-82
2023/08/17 06:12:26;;;;;;;1.27;0.40;;;18.40;81.70;;;;;;4915955;29;20032;-82
2023/08/17 06:14:53;;;;;;;1.02;0.40;;;18.40;81.70;;;;;;4900730;29;20584;-83
2023/08/17 06:17:21;;;;;;;1.33;0.30;;;18.30;81.80;;;;;;4912954;29;20146;-82
2023/08/17 06:19:48;;;;;;;1.50;0.40;;;18.30;81.80;;;;;;4920436;29;20066;-82
2023/08/17 06:22:17;;;;;;;1.95;0.40;;;18.30;82.00;;;;;;4924446;29;20059;-88
2023/08/17 06:24:44;;;;;;;1.95;0.40;;;18.20;82.00;;;;;;4915109;29;20041;-87
2023/08/17 06:27:14;;;;;;;2.35;0.47;;;18.20;82.10;;;;;;4915870;29;20127;-87
2023/08/17 06:29:53;;;;;;;1.15;0.40;;;18.20;82.10;;;;;;4900526;29;20681;-89
2023/08/17 06:32:20;;;;;;;2.05;0.47;;;18.20;82.10;;;;;;4929837;29;20044;-88
2023/08/17 06:34:48;;;;;;;0.90;0.40;;;18.20;82.20;;;;;;4897892;29;20150;-87
2023/08/17 06:37:17;;;;;;;2.08;0.50;;;18.20;82.20;;;;;;4895317;29;20055;-89
2023/08/17 06:39:44;;;;;;;2.15;0.40;;;18.10;82.30;;;;;;4912056;29;20232;-88
2023/08/17 06:42:11;;;;;;;1.33;0.50;;;18.10;82.30;;;;;;4899440;29;20047;-82
2023/08/17 06:44:39;;;;;;;1.70;0.30;;;18.20;82.30;;;;;;4912469;29;20047;-82
2023/08/17 06:47:07;;;;;;;1.35;0.45;;;18.20;82.10;;;;;;4889140;29;20047;-82
2023/08/17 06:49:34;;;;;;;1.48;0.45;;;18.30;81.90;;;;;;4899874;29;20055;-82
2023/08/17 06:52:02;;;;;;;1.08;0.40;;;18.40;81.80;;;;;;4914698;29;20481;-82
2023/08/17 06:54:32;;;;;;;2.33;0.43;;;18.50;81.70;;;;;;4924659;29;21418;-82
2023/08/17 06:56:59;;;;;;;3.60;0.60;;;18.60;81.50;;;;;;4905863;29;20066;-82
2023/08/17 06:59:26;;;;;;;2.97;0.50;;;18.70;81.30;;;;;;4916017;29;20055;-82
2023/08/17 07:01:54;;;;;;;1.05;0.30;;;18.70;81.20;;;;;;4923451;29;20118;-82
2023/08/17 07:04:22;;;;;;;2.03;0.40;;;18.70;81.10;;;;;;4903481;29;20056;-81
2023/08/17 07:06:49;;;;;;;1.52;0.50;;;18.80;81.10;;;;;;4914266;29;20048;-82
2023/08/17 07:09:17;;;;;;;2.60;0.47;;;18.90;80.90;;;;;;4911499;29;20051;-82
2023/08/17 07:11:44;;;;;;;1.13;0.40;;;19.00;80.90;;;;;;4929036;29;20040;-83
2023/08/17 07:14:13;;;;;;;1.90;0.40;;;19.00;80.90;;;;;;4913678;29;20062;-83
2023/08/17 07:16:43;;;;;;;2.47;0.52;;;19.00;80.90;;;;;;4929527;29;20052;-82
2023/08/17 07:19:11;;;;;;;1.00;0.35;;;19.00;80.80;;;;;;4915726;29;20051;-82
2023/08/17 07:21:42;;;;;;;1.85;0.30;;;19.00;80.80;;;;;;4900746;29;20159;-82
2023/08/17 07:24:13;;;;;;;0.80;0.30;;;19.00;80.80;;;;;;4899178;29;20056;-82
2023/08/17 07:26:41;;;;;;;0.65;0.40;;;19.00;80.80;;;;;;4892145;29;20047;-83
2023/08/17 07:29:08;;;;;;;2.13;0.38;;;19.00;80.80;;;;;;4896629;29;20075;-83
2023/08/17 07:31:37;;;;;;;3.38;1.08;;;19.10;80.90;;;;;;4915205;29;20047;-82
2023/08/17 07:34:06;;;;;;;0.88;0.40;;;19.10;80.60;;;;;;4907621;29;20304;-82
2023/08/17 07:36:34;;;;;;;0.82;0.20;;;19.20;80.60;;;;;;4915336;29;20484;-89
2023/08/17 07:39:06;;;;;;;1.40;0.45;;;19.20;80.50;;;;;;4917555;29;20055;-88
2023/08/17 07:41:33;;;;;;;;;;;19.20;80.50;;;;;;4895643;29;20068;-82
2023/08/17 07:44:00;;;;;;;2.13;0.47;;;19.20;80.50;;;;;;4910226;29;19927;-83
2023/08/17 07:46:27;;;;;;;1.67;0.40;;;19.10;80.60;;;;;;4899453;29;20472;-83
2023/08/17 07:48:54;;;;;;;2.65;0.50;;;19.10;80.60;;;;;;4880457;29;20139;-89
2023/08/17 07:51:21;;;;;;;1.20;0.70;;;19.20;80.60;;;;;;4899205;29;20077;-89
2023/08/17 07:53:52;;;;;;;3.17;0.40;;;19.20;80.60;;;;;;4912009;29;20059;-89
2023/08/17 07:56:20;;;;;;;1.45;0.47;;;19.20;80.60;;;;;;4900379;29;20052;-89
2023/08/17 07:58:47;;;;;;;1.15;0.60;;;19.30;80.60;;;;;;4901342;29;20065;-88
2023/08/17 08:01:16;;;;;;;1.90;0.60;;;19.20;80.50;;;;;;4899632;29;20074;-88
2023/08/17 08:03:43;;;;;;;1.13;0.47;;;19.20;80.70;;;;;;4893277;29;20054;-88
2023/08/17 08:06:10;;;;;;;2.95;0.50;;;19.20;80.60;;;;;;4911688;29;20078;-88
2023/08/17 08:08:41;;;;;;;1.27;0.73;;;19.20;80.70;;;;;;4915600;29;20046;-90
2023/08/17 08:11:13;;;;;;;2.13;0.55;;;19.20;80.70;;;;;;4915116;29;20495;-85
2023/08/17 08:13:51;;;;;;;2.28;0.75;;;19.20;81.10;;;;;;4900368;29;20444;-87
2023/08/17 08:16:21;;;;;;;1.60;0.60;;;19.10;80.70;;;;;;4902540;29;20047;-87
2023/08/17 08:18:49;;;;;;;2.15;0.55;;;19.20;80.80;;;;;;4902966;29;20066;-87
2023/08/17 08:21:17;;;;;;;2.97;0.80;;;19.10;80.70;;;;;;4918353;29;20050;-87
2023/08/17 08:23:44;;;;;;;1.88;0.70;;;19.20;80.80;;;;;;4909401;29;20111;-84
2023/08/17 08:26:14;;;;;;;1.42;0.52;;;19.20;80.70;;;;;;4919178;29;20084;-87
2023/08/17 08:28:42;;;;;;;4.25;0.90;;;19.20;80.70;;;;;;4918146;29;20055;-87
2023/08/17 08:31:12;;;;;;;1.00;0.50;;;19.20;80.70;;;;;;4918764;29;20142;-84
2023/08/17 08:33:41;;;;;;;2.40;0.52;;;19.20;80.70;;;;;;4921003;29;20078;-88
2023/08/17 08:36:08;;;;;;;1.20;0.57;;;19.30;80.60;;;;;;4918200;29;20056;-85
2023/08/17 08:38:41;;;;;;;2.45;0.60;;;19.30;80.40;;;;;;4921250;29;20051;-88
2023/08/17 08:41:09;;;;;;;1.60;0.70;;;19.40;80.30;;;;;;4922150;29;20055;-88
2023/08/17 08:43:40;;;;;;;1.33;0.60;;;19.50;80.20;;;;;;4922190;29;20047;-85
2023/08/17 08:46:09;;;;;;;1.73;0.65;;;19.50;80.10;;;;;;4923792;29;20058;-87
2023/08/17 08:48:39;;;;;;;3.15;0.70;;;19.60;80.20;;;;;;4922544;29;20044;-86
2023/08/17 08:51:10;;;;;;;2.15;0.80;;;19.50;80.00;;;;;;4921903;29;20048;-86
2023/08/17 08:53:44;;;;;;;2.50;0.70;;;19.50;80.10;;;;;;4920172;29;20062;-84
2023/08/17 08:56:12;;;;;;;2.00;1.02;;;19.50;80.20;;;;;;4909085;29;20138;-85
2023/08/17 08:58:41;;;;;;;3.22;1.05;;;19.50;80.20;;;;;;4905796;29;20383;-85
2023/08/17 09:01:10;;;;;;;2.85;0.82;;;19.50;80.20;;;;;;4921783;29;20040;-84
2023/08/17 09:03:40;;;;;;;2.90;1.05;;;19.60;80.20;;;;;;4905888;29;20071;-85
2023/08/17 09:06:09;;;;;;;2.40;0.80;;;19.60;80.10;;;;;;4905424;29;20134;-85
2023/08/17 09:08:36;;;;;;;1.65;0.70;;;19.70;80.00;;;;;;4921486;29;20138;-84
2023/08/17 09:11:05;;;;;;;2.15;0.95;;;19.80;79.90;;;;;;4905944;29;20052;-84
2023/08/17 09:13:32;;;;;;;3.65;1.20;;;19.90;79.60;;;;;;4921112;29;20575;-85
2023/08/17 09:16:02;;;;;;;2.22;0.88;;;20.00;79.40;;;;;;4921877;29;20079;-88
2023/08/17 09:18:33;;;;;;;2.65;1.25;;;20.20;79.20;;;;;;4906420;29;20048;-84
2023/08/17 09:21:04;;;;;;;;;;;20.30;78.80;;;;;;4895667;29;20048;-87
2023/08/17 09:23:33;;;;;;;4.68;1.38;;;20.30;78.80;;;;;;4933769;29;20037;-85
2023/08/17 09:26:09;;;;;;;3.03;0.88;;;20.30;78.80;;;;;;4936427;29;20474;-90
2023/08/17 09:28:40;;;;;;;4.30;1.25;;;20.40;78.50;;;;;;4919447;29;20062;-85
2023/08/17 09:36:24;;;;;;;4.13;1.10;;;20.60;78.50;;;;;;4862813;29;20136;-91
2023/08/17 09:39:43;;;;;;;2.88;1.27;;;20.60;78.40;;;;;;4862593;29;20053;-93
2023/08/17 09:46:41;;;;;;;4.15;1.42;;;20.60;78.50;;;;;;4861577;29;20128;-89
2023/08/17 09:49:13;;;;;;;2.53;1.13;;;20.60;78.40;;;;;;4891025;29;20047;-90
2023/08/17 09:52:20;;;;;;;;;;;;;;;;;;;;;
2023/08/17 09:55:39;;;;;;;;;;;;;;;;;;;;;
2023/08/17 09:58:42;;;;;;;1.98;0.95;;;20.70;78.10;;;;;;4925195;29;20062;-87
2023/08/17 10:01:15;;;;;;;3.28;1.23;;;20.70;78.10;;;;;;4905541;29;20071;-87
2023/08/17 10:05:05;;;;;;;2.95;0.90;;;20.80;78.10;;;;;;4921077;29;20136;-93
2023/08/17 10:13:07;;;;;;;3.22;1.00;;;20.90;77.80;;;;;;4944274;29;20051;-89
2023/08/17 10:16:01;;;;;;;3.45;1.05;;;20.90;77.70;;;;;;4902359;29;20074;-90
2023/08/17 10:19:13;;;;;;;4.15;1.45;;;20.90;77.90;;;;;;4913400;29;20071;-88
2023/08/17 10:22:45;;;;;;;2.88;1.10;;;20.80;78.10;;;;;;4906077;29;20068;-90
2023/08/17 10:26:15;;;;;;;2.40;1.00;;;20.80;78.20;;;;;;4878716;29;20068;-92
2023/08/17 10:30:08;;;;;;;3.60;1.38;;;20.70;78.30;;;;;;4789457;29;20054;-92
2023/08/17 10:45:25;;;;;;;;;;;;;;;;;;;;;
2023/08/17 10:53:23;;;;;;;;;;;;;;;;;;;;;
2023/08/17 10:56:14;;;;;;;2.88;1.25;;;20.60;78.50;;;;;;4720667;30;20041;-90
2023/08/17 10:59:43;;;;;;;5.35;1.35;;;20.70;78.40;;;;;;4765123;29;20050;-88
2023/08/17 11:03:20;;;;;;;5.45;1.13;;;20.80;78.10;;;;;;4848781;29;20052;-91
2023/08/17 11:06:21;;;;;;;3.60;1.10;;;20.80;78.10;;;;;;4830234;29;20056;-84
2023/08/17 11:09:25;;;;;;;2.53;0.98;;;20.80;78.20;;;;;;4862763;29;20049;-92
2023/08/17 11:13:11;;;;;;;3.45;1.35;;;20.80;78.20;;;;;;4855196;29;20056;-93
2023/08/17 11:15:45;;;;;;;4.13;1.45;;;20.80;78.20;;;;;;4861232;29;20565;-94
2023/08/17 11:18:57;;;;;;;;;;;;;;;;;;;;;
2023/08/17 11:22:48;;;;;;;3.60;1.38;;;20.90;78.30;;;;;;4851564;29;20417;-91
2023/08/17 11:25:47;;;;;;;2.60;1.42;;;20.90;78.20;;;;;;4852681;29;20148;-89
2023/08/17 11:31:58;;;;;;;2.90;1.45;;;21.00;78.10;;;;;;4861087;29;20106;-88
2023/08/17 11:34:31;;;;;;;3.85;1.33;;;21.00;78.10;;;;;;4877733;29;20213;-86
2023/08/17 11:36:58;;;;;;;2.50;1.08;;;21.10;78.10;;;;;;4877344;29;20151;-87
2023/08/17 11:39:47;;;;;;;2.45;0.98;;;21.10;77.90;;;;;;4881849;29;20056;-88
2023/08/17 11:42:46;;;;;;;3.63;1.27;;;21.20;77.90;;;;;;4872859;29;20047;-88
2023/08/17 11:45:45;;;;;;;;;;;21.30;77.80;;;;;;4911722;29;20051;-87
2023/08/17 11:48:15;;;;;;;2.85;1.35;;;21.10;78.00;;;;;;4900645;29;20356;-91
2023/08/17 11:51:25;;;;;;;3.45;1.35;;;21.00;78.20;;;;;;4900149;29;20044;-89
2023/08/17 11:54:55;;;;;;;2.80;1.00;;;21.10;78.20;;;;;;4900298;29;20045;-91
2023/08/17 11:57:25;;;;;;;3.40;1.05;;;21.10;78.10;;;;;;4909633;29;20134;-90
2023/08/17 12:00:16;;;;;;;2.15;1.00;;;21.10;78.30;;;;;;4888286;29;20501;-83
2023/08/17 12:02:46;;;;;;;1.60;0.80;;;21.10;78.30;;;;;;4914748;29;20516;-83
2023/08/17 12:05:13;;;;;;;2.78;0.80;;;21.00;78.50;;;;;;4899556;29;20070;-83
2023/08/17 12:07:40;;;;;;;1.92;0.93;;;21.00;78.60;;;;;;4883982;29;20049;-83
2023/08/17 12:10:22;;;;;;;2.85;1.02;;;21.00;78.60;;;;;;4884330;29;20045;-87
2023/08/17 12:12:52;;;;;;;2.75;1.40;;;21.00;78.70;;;;;;4914030;29;20545;-85
2023/08/17 12:15:19;;;;;;;3.55;1.45;;;20.90;78.80;;;;;;4891674;29;20055;-84
2023/08/17 12:17:47;;;;;;;3.05;1.13;;;20.90;78.80;;;;;;4883986;29;20509;-84
2023/08/17 12:20:20;;;;;;;3.90;1.58;;;21.00;78.80;;;;;;4911050;29;20466;-84
2023/08/17 12:22:48;;;;;;;2.60;1.03;;;21.00;78.80;;;;;;4897970;29;20135;-84
2023/08/17 12:25:24;;;;;;;2.95;1.00;;;21.00;78.90;;;;;;4887789;29;20751;-83
2023/08/17 12:27:54;;;;;;;2.40;1.20;;;21.00;78.70;;;;;;4898746;29;20051;-84
2023/08/17 12:30:36;;;;;;;3.75;1.33;;;21.10;78.50;;;;;;4898797;29;20139;-85
2023/08/17 12:33:11;;;;;;;2.25;1.20;;;21.30;78.50;;;;;;4896797;29;20052;-87
2023/08/17 12:35:57;;;;;;;2.45;1.10;;;21.20;78.50;;;;;;4900509;29;20055;-88
2023/08/17 12:38:25;;;;;;;3.97;1.40;;;21.20;78.70;;;;;;4899425;29;20106;-86
2023/08/17 12:41:11;;;;;;;4.30;1.88;;;21.10;78.70;;;;;;4902585;29;20052;-88
2023/08/17 12:47:28;;;;;;;2.65;1.38;;;21.00;79.00;;;;;;4891593;29;20044;-86
2023/08/17 12:50:42;;;;;;;2.72;1.40;;;21.00;78.90;;;;;;4801877;29;20058;-87
2023/08/17 12:58:15;;;;;;;4.68;1.77;;;21.00;79.10;;;;;;4842577;29;20400;-87
2023/08/17 13:01:34;;;;;;;3.47;1.58;;;21.00;79.00;;;;;;4736585;30;20147;-88
2023/08/17 13:04:14;;;;;;;4.22;2.45;;;21.00;79.00;;;;;;4776235;30;20053;-88
2023/08/17 13:06:43;;;;;;;3.28;1.52;;;21.00;79.00;;;;;;4758069;30;20054;-88
2023/08/17 13:09:24;;;;;;;3.73;1.83;;;21.00;79.10;;;;;;4779716;30;20055;-85
2023/08/17 13:11:54;;;;;;;3.05;1.52;;;21.00;79.20;;;;;;4744368;30;20297;-86
2023/08/17 13:14:24;;;;;;;3.28;1.70;;;21.10;79.10;;;;;;4757066;30;20052;-87
2023/08/17 13:17:10;;;;;;;3.78;1.70;;;21.10;79.00;;;;;;4750263;30;20082;-86
2023/08/17 13:19:41;;;;;;;4.22;1.92;;;21.20;79.00;;;;;;4766920;30;20086;-86
2023/08/17 13:22:12;;;;;;;4.00;1.48;;;21.20;79.00;;;;;;4755360;30;20132;-89
2023/08/17 13:24:54;;;;;;;;;;;;;;;;;;;;;
2023/08/17 13:27:43;;;;;;;;;;;21.20;79.00;;;;;;4853604;29;20131;-91
2023/08/17 13:30:50;;;;;;;3.28;1.30;;;21.00;79.20;;;;;;4905090;29;19962;-89
2023/08/17 13:33:32;;;;;;;3.85;1.45;;;21.00;79.40;;;;;;4920135;29;20139;-86
2023/08/17 13:36:31;;;;;;;3.10;1.33;;;21.00;79.40;;;;;;4883016;29;20215;-87
2023/08/17 13:43:02;;;;;;;3.13;1.40;;;21.10;79.40;;;;;;4886183;29;20052;-91
2023/08/17 13:46:00;;;;;;;3.25;1.10;;;21.10;79.30;;;;;;4904642;29;20056;-88
2023/08/17 13:48:27;;;;;;;2.63;1.50;;;21.10;79.40;;;;;;4869583;29;20415;-88
2023/08/17 13:50:55;;;;;;;3.78;1.40;;;21.00;79.50;;;;;;4880017;29;20091;-85
2023/08/17 13:53:28;;;;;;;2.50;1.48;;;21.00;79.70;;;;;;4890419;29;20126;-89
2023/08/17 13:56:11;;;;;;;2.60;1.27;;;21.00;79.80;;;;;;4903361;29;20056;-85
2023/08/17 14:07:31;;;;;;;5.30;1.63;;;21.00;79.90;;;;;;4900855;29;20039;-86
2023/08/17 14:10:01;;;;;;;2.10;1.30;;;21.00;79.80;;;;;;4902508;29;20063;-85
2023/08/17 14:13:13;;;;;;;3.28;1.40;;;21.00;79.90;;;;;;4902191;29;20493;-86
2023/08/17 14:20:18;;;;;;;2.97;1.40;;;21.00;80.10;;;;;;4929228;29;20095;-85
2023/08/17 14:23:37;;;;;;;2.38;1.35;;;21.00;80.10;;;;;;4924037;29;20052;-91
2023/08/17 14:26:32;;;;;;;3.58;1.45;;;21.00;80.10;;;;;;4919861;29;20464;-93
2023/08/17 14:29:06;;;;;;;3.25;1.73;;;21.00;80.30;;;;;;4919145;29;20052;-86
2023/08/17 14:35:27;;;;;;;3.50;1.88;;;20.90;80.50;;;;;;4906419;29;20546;-86
2023/08/17 14:38:36;;;;;;;3.15;1.77;;;20.90;80.60;;;;;;4925778;29;20070;-87
2023/08/17 14:49:37;;;;;;;2.88;1.33;;;21.00;80.30;;;;;;4940251;29;20044;-83
2023/08/17 14:52:06;;;;;;;2.97;1.90;;;21.10;80.10;;;;;;4884268;29;20040;-83